sensor_id;sensor_type;location;lat;lon;timestamp;P1;durP1;ratioP1;P2;durP2;ratioP2
6823;SDS011;58633;49.470;11.004;2023-10-13T00:01:59;16.17;;;8.20;;
6823;SDS011;58633;49.470;11.004;2023-10-13T00:04:26;12.13;;;7.53;;
6823;SDS011;58633;49.470;11.004;2023-10-13T00:06:57;17.60;;;7.97;;
6823;SDS011;58633;49.470;11.004;2023-10-13T00:09:24;17.55;;;8.10;;
6823;SDS011;58633;49.470;11.004;2023-10-13T00:11:54;14.35;;;7.78;;
6823;SDS011;58633;49.470;11.004;2023-10-13T00:14:21;10.55;;;7.10;;
6823;SDS011;58633;49.470;11.004;2023-10-13T00:16:46;13.60;;;8.25;;
6823;SDS011;58633;49.470;11.004;2023-10-13T00:19:32;14.82;;;7.85;;
6823;SDS011;58633;49.470;11.004;2023-10-13T00:22:20;14.63;;;8.02;;
6823;SDS011;58633;49.470;11.004;2023-10-13T00:24:47;13.90;;;8.10;;
6823;SDS011;58633;49.470;11.004;2023-10-13T00:27:17;15.57;;;8.27;;
6823;SDS011;58633;49.470;11.004;2023-10-13T00:29:53;10.73;;;7.15;;
6823;SDS011;58633;49.470;11.004;2023-10-13T00:32:44;13.73;;;7.75;;
6823;SDS011;58633;49.470;11.004;2023-10-13T00:35:12;14.60;;;7.72;;
6823;SDS011;58633;49.470;11.004;2023-10-13T00:37:49;11.32;;;7.32;;
6823;SDS011;58633;49.470;11.004;2023-10-13T00:40:20;9.82;;;7.18;;
6823;SDS011;58633;49.470;11.004;2023-10-13T00:42:55;16.15;;;7.35;;
6823;SDS011;58633;49.470;11.004;2023-10-13T00:45:49;12.98;;;7.72;;
6823;SDS011;58633;49.470;11.004;2023-10-13T00:48:28;13.77;;;7.57;;
6823;SDS011;58633;49.470;11.004;2023-10-13T00:51:00;12.00;;;6.95;;
6823;SDS011;58633;49.470;11.004;2023-10-13T00:53:32;15.70;;;7.40;;
6823;SDS011;58633;49.470;11.004;2023-10-13T00:56:09;16.67;;;7.60;;
6823;SDS011;58633;49.470;11.004;2023-10-13T00:58:44;17.13;;;7.65;;
6823;SDS011;58633;49.470;11.004;2023-10-13T01:01:15;13.63;;;7.63;;
6823;SDS011;58633;49.470;11.004;2023-10-13T01:03:47;10.93;;;7.13;;
6823;SDS011;58633;49.470;11.004;2023-10-13T01:06:15;14.38;;;7.50;;
6823;SDS011;58633;49.470;11.004;2023-10-13T01:08:47;14.48;;;6.90;;
6823;SDS011;58633;49.470;11.004;2023-10-13T01:11:19;12.48;;;7.82;;
6823;SDS011;58633;49.470;11.004;2023-10-13T01:13:48;15.35;;;7.60;;
6823;SDS011;58633;49.470;11.004;2023-10-13T01:16:19;12.45;;;8.10;;
6823;SDS011;58633;49.470;11.004;2023-10-13T01:18:52;13.77;;;7.97;;
6823;SDS011;58633;49.470;11.004;2023-10-13T01:21:18;13.00;;;7.38;;
6823;SDS011;58633;49.470;11.004;2023-10-13T01:23:52;13.70;;;7.05;;
6823;SDS011;58633;49.470;11.004;2023-10-13T01:26:17;12.95;;;7.60;;
6823;SDS011;58633;49.470;11.004;2023-10-13T01:28:58;11.60;;;7.47;;
6823;SDS011;58633;49.470;11.004;2023-10-13T01:31:23;15.65;;;7.80;;
6823;SDS011;58633;49.470;11.004;2023-10-13T01:33:52;12.13;;;7.18;;
6823;SDS011;58633;49.470;11.004;2023-10-13T01:36:23;14.32;;;7.68;;
6823;SDS011;58633;49.470;11.004;2023-10-13T01:38:51;11.23;;;7.75;;
6823;SDS011;58633;49.470;11.004;2023-10-13T01:41:18;12.30;;;7.78;;
6823;SDS011;58633;49.470;11.004;2023-10-13T01:43:44;15.45;;;8.40;;
6823;SDS011;58633;49.470;11.004;2023-10-13T01:46:10;16.02;;;8.35;;
6823;SDS011;58633;49.470;11.004;2023-10-13T01:48:38;13.70;;;8.40;;
6823;SDS011;58633;49.470;11.004;2023-10-13T01:51:05;13.57;;;7.95;;
6823;SDS011;58633;49.470;11.004;2023-10-13T01:53:34;15.32;;;8.88;;
6823;SDS011;58633;49.470;11.004;2023-10-13T01:56:04;20.00;;;9.73;;
6823;SDS011;58633;49.470;11.004;2023-10-13T01:58:37;16.35;;;8.70;;
6823;SDS011;58633;49.470;11.004;2023-10-13T02:01:06;18.02;;;8.55;;
6823;SDS011;58633;49.470;11.004;2023-10-13T02:03:33;16.38;;;8.90;;
6823;SDS011;58633;49.470;11.004;2023-10-13T02:05:58;15.40;;;9.18;;
6823;SDS011;58633;49.470;11.004;2023-10-13T02:08:29;16.40;;;8.93;;
6823;SDS011;58633;49.470;11.004;2023-10-13T02:10:56;16.98;;;9.00;;
6823;SDS011;58633;49.470;11.004;2023-10-13T02:13:23;17.00;;;9.13;;
6823;SDS011;58633;49.470;11.004;2023-10-13T02:15:54;14.80;;;8.45;;
6823;SDS011;58633;49.470;11.004;2023-10-13T02:18:21;13.40;;;8.50;;
6823;SDS011;58633;49.470;11.004;2023-10-13T02:21:06;15.13;;;8.57;;
6823;SDS011;58633;49.470;11.004;2023-10-13T02:23:41;14.02;;;8.35;;
6823;SDS011;58633;49.470;11.004;2023-10-13T02:26:12;13.98;;;8.48;;
6823;SDS011;58633;49.470;11.004;2023-10-13T02:28:41;11.25;;;7.40;;
6823;SDS011;58633;49.470;11.004;2023-10-13T02:31:06;17.15;;;8.65;;
6823;SDS011;58633;49.470;11.004;2023-10-13T02:33:32;13.38;;;7.60;;
6823;SDS011;58633;49.470;11.004;2023-10-13T02:36:00;11.48;;;8.40;;
6823;SDS011;58633;49.470;11.004;2023-10-13T02:38:32;12.10;;;7.72;;
6823;SDS011;58633;49.470;11.004;2023-10-13T02:40:58;12.70;;;8.27;;
6823;SDS011;58633;49.470;11.004;2023-10-13T02:43:35;15.30;;;8.07;;
6823;SDS011;58633;49.470;11.004;2023-10-13T02:46:01;16.60;;;8.55;;
6823;SDS011;58633;49.470;11.004;2023-10-13T02:48:28;14.57;;;8.55;;
6823;SDS011;58633;49.470;11.004;2023-10-13T02:51:07;15.23;;;9.07;;
6823;SDS011;58633;49.470;11.004;2023-10-13T02:53:46;11.63;;;7.80;;
6823;SDS011;58633;49.470;11.004;2023-10-13T02:56:15;11.73;;;8.20;;
6823;SDS011;58633;49.470;11.004;2023-10-13T02:58:52;13.75;;;8.90;;
6823;SDS011;58633;49.470;11.004;2023-10-13T03:01:31;16.30;;;8.38;;
6823;SDS011;58633;49.470;11.004;2023-10-13T03:03:59;13.85;;;8.88;;
6823;SDS011;58633;49.470;11.004;2023-10-13T03:06:25;12.55;;;8.88;;
6823;SDS011;58633;49.470;11.004;2023-10-13T03:08:57;15.32;;;8.90;;
6823;SDS011;58633;49.470;11.004;2023-10-13T03:11:51;16.58;;;9.23;;
6823;SDS011;58633;49.470;11.004;2023-10-13T03:14:17;13.30;;;8.43;;
6823;SDS011;58633;49.470;11.004;2023-10-13T03:16:53;19.27;;;9.32;;
6823;SDS011;58633;49.470;11.004;2023-10-13T03:19:19;14.52;;;8.07;;
6823;SDS011;58633;49.470;11.004;2023-10-13T03:21:46;12.48;;;7.80;;
6823;SDS011;58633;49.470;11.004;2023-10-13T03:24:20;16.17;;;8.52;;
6823;SDS011;58633;49.470;11.004;2023-10-13T03:26:58;12.82;;;8.05;;
6823;SDS011;58633;49.470;11.004;2023-10-13T03:29:35;15.75;;;9.15;;
6823;SDS011;58633;49.470;11.004;2023-10-13T03:32:02;17.00;;;9.07;;
6823;SDS011;58633;49.470;11.004;2023-10-13T03:34:32;16.50;;;9.35;;
6823;SDS011;58633;49.470;11.004;2023-10-13T03:36:59;14.57;;;8.52;;
6823;SDS011;58633;49.470;11.004;2023-10-13T03:39:35;14.32;;;8.45;;
6823;SDS011;58633;49.470;11.004;2023-10-13T03:42:01;14.23;;;9.50;;
6823;SDS011;58633;49.470;11.004;2023-10-13T03:44:30;13.30;;;8.98;;
6823;SDS011;58633;49.470;11.004;2023-10-13T03:46:56;17.25;;;8.32;;
6823;SDS011;58633;49.470;11.004;2023-10-13T03:49:22;14.70;;;8.77;;
6823;SDS011;58633;49.470;11.004;2023-10-13T03:51:50;14.93;;;8.30;;
6823;SDS011;58633;49.470;11.004;2023-10-13T03:54:19;13.55;;;8.88;;
6823;SDS011;58633;49.470;11.004;2023-10-13T03:56:45;13.95;;;8.73;;
6823;SDS011;58633;49.470;11.004;2023-10-13T03:59:11;14.73;;;8.90;;
6823;SDS011;58633;49.470;11.004;2023-10-13T04:01:39;14.45;;;9.07;;
6823;SDS011;58633;49.470;11.004;2023-10-13T04:04:08;14.60;;;8.95;;
6823;SDS011;58633;49.470;11.004;2023-10-13T04:06:37;15.38;;;9.27;;
6823;SDS011;58633;49.470;11.004;2023-10-13T04:09:23;11.13;;;8.02;;
6823;SDS011;58633;49.470;11.004;2023-10-13T04:11:58;16.52;;;8.60;;
6823;SDS011;58633;49.470;11.004;2023-10-13T04:14:30;13.02;;;8.77;;
6823;SDS011;58633;49.470;11.004;2023-10-13T04:17:15;15.90;;;8.57;;
6823;SDS011;58633;49.470;11.004;2023-10-13T04:19:47;13.48;;;8.52;;
6823;SDS011;58633;49.470;11.004;2023-10-13T04:22:35;14.02;;;8.20;;
6823;SDS011;58633;49.470;11.004;2023-10-13T04:25:28;15.52;;;9.10;;
6823;SDS011;58633;49.470;11.004;2023-10-13T04:28:09;12.85;;;8.27;;
6823;SDS011;58633;49.470;11.004;2023-10-13T04:30:40;15.05;;;8.15;;
6823;SDS011;58633;49.470;11.004;2023-10-13T04:33:27;17.40;;;8.55;;
6823;SDS011;58633;49.470;11.004;2023-10-13T04:35:58;12.27;;;7.90;;
6823;SDS011;58633;49.470;11.004;2023-10-13T04:38:48;14.07;;;8.35;;
6823;SDS011;58633;49.470;11.004;2023-10-13T04:41:31;16.50;;;8.50;;
6823;SDS011;58633;49.470;11.004;2023-10-13T04:44:27;13.35;;;8.73;;
6823;SDS011;58633;49.470;11.004;2023-10-13T04:47:11;16.08;;;9.18;;
6823;SDS011;58633;49.470;11.004;2023-10-13T04:49:46;15.93;;;8.38;;
6823;SDS011;58633;49.470;11.004;2023-10-13T04:52:11;16.52;;;8.50;;
6823;SDS011;58633;49.470;11.004;2023-10-13T04:54:37;14.40;;;8.73;;
6823;SDS011;58633;49.470;11.004;2023-10-13T04:57:14;16.77;;;8.63;;
6823;SDS011;58633;49.470;11.004;2023-10-13T04:59:50;16.00;;;8.50;;
6823;SDS011;58633;49.470;11.004;2023-10-13T05:02:55;14.90;;;9.35;;
6823;SDS011;58633;49.470;11.004;2023-10-13T05:05:26;15.23;;;8.63;;
6823;SDS011;58633;49.470;11.004;2023-10-13T05:08:12;13.30;;;8.45;;
6823;SDS011;58633;49.470;11.004;2023-10-13T05:10:57;11.52;;;8.52;;
6823;SDS011;58633;49.470;11.004;2023-10-13T05:13:41;18.95;;;8.95;;
6823;SDS011;58633;49.470;11.004;2023-10-13T05:16:25;13.05;;;7.85;;
6823;SDS011;58633;49.470;11.004;2023-10-13T05:19:09;12.23;;;7.70;;
6823;SDS011;58633;49.470;11.004;2023-10-13T05:21:53;12.27;;;8.13;;
6823;SDS011;58633;49.470;11.004;2023-10-13T05:24:54;11.82;;;7.65;;
6823;SDS011;58633;49.470;11.004;2023-10-13T05:27:38;13.90;;;8.00;;
6823;SDS011;58633;49.470;11.004;2023-10-13T05:30:22;10.23;;;7.70;;
6823;SDS011;58633;49.470;11.004;2023-10-13T05:33:06;12.32;;;7.63;;
6823;SDS011;58633;49.470;11.004;2023-10-13T05:35:50;12.70;;;8.35;;
6823;SDS011;58633;49.470;11.004;2023-10-13T05:38:35;14.57;;;8.10;;
6823;SDS011;58633;49.470;11.004;2023-10-13T05:41:19;13.85;;;8.23;;
6823;SDS011;58633;49.470;11.004;2023-10-13T05:44:03;14.18;;;8.43;;
6823;SDS011;58633;49.470;11.004;2023-10-13T05:46:48;16.25;;;8.05;;
6823;SDS011;58633;49.470;11.004;2023-10-13T05:49:36;14.75;;;7.75;;
6823;SDS011;58633;49.470;11.004;2023-10-13T05:52:15;8.88;;;7.15;;
6823;SDS011;58633;49.470;11.004;2023-10-13T05:54:45;13.38;;;7.70;;
6823;SDS011;58633;49.470;11.004;2023-10-13T05:57:30;14.43;;;7.15;;
6823;SDS011;58633;49.470;11.004;2023-10-13T06:00:14;11.90;;;7.03;;
6823;SDS011;58633;49.470;11.004;2023-10-13T06:02:59;13.15;;;7.43;;
6823;SDS011;58633;49.470;11.004;2023-10-13T06:05:43;12.18;;;7.30;;
6823;SDS011;58633;49.470;11.004;2023-10-13T06:08:27;15.70;;;7.70;;
6823;SDS011;58633;49.470;11.004;2023-10-13T06:11:11;10.05;;;7.43;;
6823;SDS011;58633;49.470;11.004;2023-10-13T06:13:55;16.02;;;8.18;;
6823;SDS011;58633;49.470;11.004;2023-10-13T06:16:39;12.57;;;7.78;;
6823;SDS011;58633;49.470;11.004;2023-10-13T06:19:24;11.18;;;7.30;;
6823;SDS011;58633;49.470;11.004;2023-10-13T06:22:08;9.45;;;6.95;;
6823;SDS011;58633;49.470;11.004;2023-10-13T06:24:52;11.73;;;7.38;;
6823;SDS011;58633;49.470;11.004;2023-10-13T06:27:36;10.82;;;7.50;;
6823;SDS011;58633;49.470;11.004;2023-10-13T06:30:20;11.75;;;7.30;;
6823;SDS011;58633;49.470;11.004;2023-10-13T06:32:45;11.38;;;7.32;;
6823;SDS011;58633;49.470;11.004;2023-10-13T06:35:11;14.63;;;7.22;;
6823;SDS011;58633;49.470;11.004;2023-10-13T06:37:52;11.77;;;6.97;;
6823;SDS011;58633;49.470;11.004;2023-10-13T06:40:18;12.70;;;7.25;;
6823;SDS011;58633;49.470;11.004;2023-10-13T06:42:49;16.63;;;7.88;;
6823;SDS011;58633;49.470;11.004;2023-10-13T06:45:15;10.88;;;7.50;;
6823;SDS011;58633;49.470;11.004;2023-10-13T06:47:42;16.65;;;7.78;;
6823;SDS011;58633;49.470;11.004;2023-10-13T06:50:10;15.27;;;7.03;;
6823;SDS011;58633;49.470;11.004;2023-10-13T06:52:47;11.60;;;8.18;;
6823;SDS011;58633;49.470;11.004;2023-10-13T06:55:14;12.13;;;7.38;;
6823;SDS011;58633;49.470;11.004;2023-10-13T06:57:42;12.63;;;7.25;;
6823;SDS011;58633;49.470;11.004;2023-10-13T07:00:12;14.35;;;6.93;;
6823;SDS011;58633;49.470;11.004;2023-10-13T07:02:55;17.33;;;6.95;;
6823;SDS011;58633;49.470;11.004;2023-10-13T07:05:33;10.63;;;6.03;;
6823;SDS011;58633;49.470;11.004;2023-10-13T07:08:06;8.23;;;6.00;;
6823;SDS011;58633;49.470;11.004;2023-10-13T07:10:32;9.95;;;6.45;;
6823;SDS011;58633;49.470;11.004;2023-10-13T07:13:09;11.23;;;6.97;;
6823;SDS011;58633;49.470;11.004;2023-10-13T07:15:38;13.93;;;6.85;;
6823;SDS011;58633;49.470;11.004;2023-10-13T07:18:09;13.15;;;6.40;;
6823;SDS011;58633;49.470;11.004;2023-10-13T07:20:40;9.73;;;6.00;;
6823;SDS011;58633;49.470;11.004;2023-10-13T07:23:10;10.57;;;5.97;;
6823;SDS011;58633;49.470;11.004;2023-10-13T07:25:51;10.80;;;6.10;;
6823;SDS011;58633;49.470;11.004;2023-10-13T07:28:19;9.82;;;6.20;;
6823;SDS011;58633;49.470;11.004;2023-10-13T07:30:45;10.60;;;5.55;;
6823;SDS011;58633;49.470;11.004;2023-10-13T07:33:34;9.70;;;6.30;;
6823;SDS011;58633;49.470;11.004;2023-10-13T07:36:00;8.70;;;6.00;;
6823;SDS011;58633;49.470;11.004;2023-10-13T07:38:53;11.57;;;5.93;;
6823;SDS011;58633;49.470;11.004;2023-10-13T07:41:48;10.43;;;5.30;;
6823;SDS011;58633;49.470;11.004;2023-10-13T07:44:19;10.80;;;5.72;;
6823;SDS011;58633;49.470;11.004;2023-10-13T07:46:49;11.73;;;5.55;;
6823;SDS011;58633;49.470;11.004;2023-10-13T07:49:26;8.25;;;5.22;;
6823;SDS011;58633;49.470;11.004;2023-10-13T07:51:55;8.68;;;5.43;;
6823;SDS011;58633;49.470;11.004;2023-10-13T07:54:26;8.52;;;5.47;;
6823;SDS011;58633;49.470;11.004;2023-10-13T07:56:52;8.85;;;5.15;;
6823;SDS011;58633;49.470;11.004;2023-10-13T07:59:20;11.07;;;5.32;;
6823;SDS011;58633;49.470;11.004;2023-10-13T08:01:47;8.18;;;5.50;;
6823;SDS011;58633;49.470;11.004;2023-10-13T08:04:33;10.32;;;5.38;;
6823;SDS011;58633;49.470;11.004;2023-10-13T08:07:00;13.95;;;5.45;;
6823;SDS011;58633;49.470;11.004;2023-10-13T08:09:37;11.05;;;5.10;;
6823;SDS011;58633;49.470;11.004;2023-10-13T08:12:06;15.82;;;5.68;;
6823;SDS011;58633;49.470;11.004;2023-10-13T08:14:37;7.88;;;4.97;;
6823;SDS011;58633;49.470;11.004;2023-10-13T08:17:06;10.00;;;5.07;;
6823;SDS011;58633;49.470;11.004;2023-10-13T08:19:34;9.93;;;5.35;;
6823;SDS011;58633;49.470;11.004;2023-10-13T08:22:12;8.20;;;5.35;;
6823;SDS011;58633;49.470;11.004;2023-10-13T08:24:45;8.00;;;5.07;;
6823;SDS011;58633;49.470;11.004;2023-10-13T08:27:12;10.95;;;5.03;;
6823;SDS011;58633;49.470;11.004;2023-10-13T08:29:57;13.50;;;5.13;;
6823;SDS011;58633;49.470;11.004;2023-10-13T08:32:23;7.30;;;4.40;;
6823;SDS011;58633;49.470;11.004;2023-10-13T08:34:52;15.68;;;5.78;;
6823;SDS011;58633;49.470;11.004;2023-10-13T08:37:17;7.82;;;4.95;;
6823;SDS011;58633;49.470;11.004;2023-10-13T08:39:47;8.88;;;4.63;;
6823;SDS011;58633;49.470;11.004;2023-10-13T08:42:37;11.20;;;4.80;;
6823;SDS011;58633;49.470;11.004;2023-10-13T08:47:46;9.18;;;4.57;;
6823;SDS011;58633;49.470;11.004;2023-10-13T08:50:34;8.23;;;4.72;;
6823;SDS011;58633;49.470;11.004;2023-10-13T08:55:58;6.38;;;4.05;;
6823;SDS011;58633;49.470;11.004;2023-10-13T09:01:25;11.30;;;4.55;;
6823;SDS011;58633;49.470;11.004;2023-10-13T09:04:13;7.70;;;4.10;;
6823;SDS011;58633;49.470;11.004;2023-10-13T09:06:47;7.70;;;4.40;;
6823;SDS011;58633;49.470;11.004;2023-10-13T09:12:17;8.27;;;4.28;;
6823;SDS011;58633;49.470;11.004;2023-10-13T09:14:53;8.77;;;4.53;;
6823;SDS011;58633;49.470;11.004;2023-10-13T09:17:24;10.93;;;5.03;;
6823;SDS011;58633;49.470;11.004;2023-10-13T09:20:04;7.35;;;4.00;;
6823;SDS011;58633;49.470;11.004;2023-10-13T09:25:28;9.57;;;4.40;;
6823;SDS011;58633;49.470;11.004;2023-10-13T09:27:58;7.57;;;4.47;;
6823;SDS011;58633;49.470;11.004;2023-10-13T09:30:25;7.53;;;4.25;;
6823;SDS011;58633;49.470;11.004;2023-10-13T09:33:02;6.65;;;4.10;;
6823;SDS011;58633;49.470;11.004;2023-10-13T09:35:40;10.73;;;4.70;;
6823;SDS011;58633;49.470;11.004;2023-10-13T09:38:16;8.20;;;4.20;;
6823;SDS011;58633;49.470;11.004;2023-10-13T09:40:43;8.55;;;4.40;;
6823;SDS011;58633;49.470;11.004;2023-10-13T09:43:18;8.50;;;4.30;;
6823;SDS011;58633;49.470;11.004;2023-10-13T09:45:47;7.30;;;3.88;;
6823;SDS011;58633;49.470;11.004;2023-10-13T09:48:33;8.55;;;4.95;;
6823;SDS011;58633;49.470;11.004;2023-10-13T09:51:02;9.70;;;4.57;;
6823;SDS011;58633;49.470;11.004;2023-10-13T09:53:33;6.55;;;4.00;;
6823;SDS011;58633;49.470;11.004;2023-10-13T09:58:47;8.02;;;4.07;;
6823;SDS011;58633;49.470;11.004;2023-10-13T10:01:24;7.15;;;3.85;;
6823;SDS011;58633;49.470;11.004;2023-10-13T10:04:09;6.72;;;4.03;;
6823;SDS011;58633;49.470;11.004;2023-10-13T10:06:54;9.57;;;4.18;;
6823;SDS011;58633;49.470;11.004;2023-10-13T10:09:26;6.90;;;3.63;;
6823;SDS011;58633;49.470;11.004;2023-10-13T10:12:11;7.65;;;3.70;;
6823;SDS011;58633;49.470;11.004;2023-10-13T10:17:23;10.10;;;4.38;;
6823;SDS011;58633;49.470;11.004;2023-10-13T10:19:54;8.52;;;4.35;;
6823;SDS011;58633;49.470;11.004;2023-10-13T10:22:28;6.18;;;3.67;;
6823;SDS011;58633;49.470;11.004;2023-10-13T10:25:05;7.82;;;4.00;;
6823;SDS011;58633;49.470;11.004;2023-10-13T10:27:57;11.60;;;4.10;;
6823;SDS011;58633;49.470;11.004;2023-10-13T10:30:27;7.10;;;4.28;;
6823;SDS011;58633;49.470;11.004;2023-10-13T10:32:54;8.43;;;3.70;;
6823;SDS011;58633;49.470;11.004;2023-10-13T10:35:31;9.25;;;4.30;;
6823;SDS011;58633;49.470;11.004;2023-10-13T10:38:10;5.28;;;3.25;;
6823;SDS011;58633;49.470;11.004;2023-10-13T10:40:52;8.20;;;3.80;;
6823;SDS011;58633;49.470;11.004;2023-10-13T10:43:43;8.45;;;3.35;;
6823;SDS011;58633;49.470;11.004;2023-10-13T10:46:12;7.68;;;3.67;;
6823;SDS011;58633;49.470;11.004;2023-10-13T10:48:39;10.00;;;3.53;;
6823;SDS011;58633;49.470;11.004;2023-10-13T10:51:08;7.68;;;3.90;;
6823;SDS011;58633;49.470;11.004;2023-10-13T10:53:47;5.57;;;3.55;;
6823;SDS011;58633;49.470;11.004;2023-10-13T10:56:15;7.10;;;4.13;;
6823;SDS011;58633;49.470;11.004;2023-10-13T10:58:49;7.97;;;3.97;;
6823;SDS011;58633;49.470;11.004;2023-10-13T11:01:21;10.73;;;4.20;;
6823;SDS011;58633;49.470;11.004;2023-10-13T11:03:54;5.55;;;3.53;;
6823;SDS011;58633;49.470;11.004;2023-10-13T11:06:32;7.65;;;3.42;;
6823;SDS011;58633;49.470;11.004;2023-10-13T11:09:06;7.65;;;3.75;;
6823;SDS011;58633;49.470;11.004;2023-10-13T11:11:44;7.65;;;3.30;;
6823;SDS011;58633;49.470;11.004;2023-10-13T11:14:19;7.88;;;2.90;;
6823;SDS011;58633;49.470;11.004;2023-10-13T11:16:48;5.70;;;3.20;;
6823;SDS011;58633;49.470;11.004;2023-10-13T11:19:41;6.65;;;3.30;;
6823;SDS011;58633;49.470;11.004;2023-10-13T11:22:16;9.70;;;3.42;;
6823;SDS011;58633;49.470;11.004;2023-10-13T11:24:58;9.35;;;3.20;;
6823;SDS011;58633;49.470;11.004;2023-10-13T11:27:29;8.32;;;3.15;;
6823;SDS011;58633;49.470;11.004;2023-10-13T11:30:20;19.08;;;3.20;;
6823;SDS011;58633;49.470;11.004;2023-10-13T11:33:02;8.07;;;4.13;;
6823;SDS011;58633;49.470;11.004;2023-10-13T11:35:31;5.97;;;3.30;;
6823;SDS011;58633;49.470;11.004;2023-10-13T11:38:16;5.80;;;2.97;;
6823;SDS011;58633;49.470;11.004;2023-10-13T11:40:55;7.60;;;3.17;;
6823;SDS011;58633;49.470;11.004;2023-10-13T11:43:34;9.85;;;3.30;;
6823;SDS011;58633;49.470;11.004;2023-10-13T11:46:12;5.97;;;3.17;;
6823;SDS011;58633;49.470;11.004;2023-10-13T11:48:39;6.35;;;3.13;;
6823;SDS011;58633;49.470;11.004;2023-10-13T11:51:08;7.25;;;3.22;;
6823;SDS011;58633;49.470;11.004;2023-10-13T11:53:49;6.70;;;3.10;;
6823;SDS011;58633;49.470;11.004;2023-10-13T11:56:18;4.38;;;3.13;;
6823;SDS011;58633;49.470;11.004;2023-10-13T11:58:47;6.50;;;3.53;;
6823;SDS011;58633;49.470;11.004;2023-10-13T12:01:13;8.18;;;2.70;;
6823;SDS011;58633;49.470;11.004;2023-10-13T12:03:40;7.55;;;3.17;;
6823;SDS011;58633;49.470;11.004;2023-10-13T12:06:25;6.30;;;3.10;;
6823;SDS011;58633;49.470;11.004;2023-10-13T12:09:00;8.10;;;3.10;;
6823;SDS011;58633;49.470;11.004;2023-10-13T12:11:41;8.45;;;3.65;;
6823;SDS011;58633;49.470;11.004;2023-10-13T12:14:07;7.82;;;3.25;;
6823;SDS011;58633;49.470;11.004;2023-10-13T12:16:44;8.70;;;3.60;;
6823;SDS011;58633;49.470;11.004;2023-10-13T12:19:24;8.35;;;3.47;;
6823;SDS011;58633;49.470;11.004;2023-10-13T12:21:51;4.47;;;2.85;;
6823;SDS011;58633;49.470;11.004;2023-10-13T12:24:23;4.57;;;3.40;;
6823;SDS011;58633;49.470;11.004;2023-10-13T12:27:04;6.57;;;3.05;;
6823;SDS011;58633;49.470;11.004;2023-10-13T12:29:51;6.20;;;2.75;;
6823;SDS011;58633;49.470;11.004;2023-10-13T12:32:18;5.40;;;3.28;;
6823;SDS011;58633;49.470;11.004;2023-10-13T12:34:50;7.72;;;4.53;;
6823;SDS011;58633;49.470;11.004;2023-10-13T12:37:41;6.78;;;3.95;;
6823;SDS011;58633;49.470;11.004;2023-10-13T12:40:08;6.72;;;3.45;;
6823;SDS011;58633;49.470;11.004;2023-10-13T12:42:55;5.80;;;3.05;;
6823;SDS011;58633;49.470;11.004;2023-10-13T12:45:40;7.50;;;2.95;;
6823;SDS011;58633;49.470;11.004;2023-10-13T12:48:24;5.32;;;3.00;;
6823;SDS011;58633;49.470;11.004;2023-10-13T12:51:08;9.65;;;2.88;;
6823;SDS011;58633;49.470;11.004;2023-10-13T12:53:53;8.30;;;3.10;;
6823;SDS011;58633;49.470;11.004;2023-10-13T12:56:20;4.47;;;2.92;;
6823;SDS011;58633;49.470;11.004;2023-10-13T12:58:51;8.85;;;2.92;;
6823;SDS011;58633;49.470;11.004;2023-10-13T13:01:20;6.95;;;3.00;;
6823;SDS011;58633;49.470;11.004;2023-10-13T13:03:48;8.52;;;3.20;;
6823;SDS011;58633;49.470;11.004;2023-10-13T13:06:21;8.20;;;3.28;;
6823;SDS011;58633;49.470;11.004;2023-10-13T13:08:51;6.53;;;3.42;;
6823;SDS011;58633;49.470;11.004;2023-10-13T13:11:21;6.93;;;3.00;;
6823;SDS011;58633;49.470;11.004;2023-10-13T13:13:47;7.60;;;3.03;;
6823;SDS011;58633;49.470;11.004;2023-10-13T13:16:13;5.45;;;2.78;;
6823;SDS011;58633;49.470;11.004;2023-10-13T13:18:40;8.50;;;2.80;;
6823;SDS011;58633;49.470;11.004;2023-10-13T13:21:05;7.85;;;2.97;;
6823;SDS011;58633;49.470;11.004;2023-10-13T13:23:32;5.60;;;2.50;;
6823;SDS011;58633;49.470;11.004;2023-10-13T13:25:59;8.57;;;3.30;;
6823;SDS011;58633;49.470;11.004;2023-10-13T13:28:25;6.75;;;2.80;;
6823;SDS011;58633;49.470;11.004;2023-10-13T13:30:53;8.00;;;2.80;;
6823;SDS011;58633;49.470;11.004;2023-10-13T13:33:19;7.07;;;2.85;;
6823;SDS011;58633;49.470;11.004;2023-10-13T13:35:49;5.03;;;2.83;;
6823;SDS011;58633;49.470;11.004;2023-10-13T13:38:18;5.55;;;2.97;;
6823;SDS011;58633;49.470;11.004;2023-10-13T13:40:47;5.57;;;3.15;;
6823;SDS011;58633;49.470;11.004;2023-10-13T13:43:14;8.23;;;2.85;;
6823;SDS011;58633;49.470;11.004;2023-10-13T13:45:56;11.95;;;3.08;;
6823;SDS011;58633;49.470;11.004;2023-10-13T13:48:27;8.98;;;3.10;;
6823;SDS011;58633;49.470;11.004;2023-10-13T13:50:53;4.88;;;2.65;;
6823;SDS011;58633;49.470;11.004;2023-10-13T13:53:28;6.60;;;2.63;;
6823;SDS011;58633;49.470;11.004;2023-10-13T13:56:03;6.65;;;3.10;;
6823;SDS011;58633;49.470;11.004;2023-10-13T13:58:44;5.38;;;2.92;;
6823;SDS011;58633;49.470;11.004;2023-10-13T14:01:22;8.45;;;2.65;;
6823;SDS011;58633;49.470;11.004;2023-10-13T14:03:50;10.13;;;2.97;;
6823;SDS011;58633;49.470;11.004;2023-10-13T14:06:18;5.35;;;2.85;;
6823;SDS011;58633;49.470;11.004;2023-10-13T14:08:53;5.53;;;2.67;;
6823;SDS011;58633;49.470;11.004;2023-10-13T14:11:20;6.15;;;2.70;;
6823;SDS011;58633;49.470;11.004;2023-10-13T14:14:07;4.40;;;2.60;;
6823;SDS011;58633;49.470;11.004;2023-10-13T14:16:39;5.13;;;2.72;;
6823;SDS011;58633;49.470;11.004;2023-10-13T14:19:12;4.38;;;3.28;;
6823;SDS011;58633;49.470;11.004;2023-10-13T14:21:54;8.77;;;2.80;;
6823;SDS011;58633;49.470;11.004;2023-10-13T14:24:20;5.38;;;2.83;;
6823;SDS011;58633;49.470;11.004;2023-10-13T14:26:53;8.40;;;2.80;;
6823;SDS011;58633;49.470;11.004;2023-10-13T14:29:36;8.00;;;2.45;;
6823;SDS011;58633;49.470;11.004;2023-10-13T14:32:07;9.40;;;2.63;;
6823;SDS011;58633;49.470;11.004;2023-10-13T14:34:37;8.23;;;3.28;;
6823;SDS011;58633;49.470;11.004;2023-10-13T14:37:03;6.70;;;2.80;;
6823;SDS011;58633;49.470;11.004;2023-10-13T14:39:29;9.85;;;3.50;;
6823;SDS011;58633;49.470;11.004;2023-10-13T14:41:55;9.68;;;2.80;;
6823;SDS011;58633;49.470;11.004;2023-10-13T14:44:21;5.68;;;3.17;;
6823;SDS011;58633;49.470;11.004;2023-10-13T14:46:51;6.38;;;2.38;;
6823;SDS011;58633;49.470;11.004;2023-10-13T14:49:20;6.70;;;3.10;;
6823;SDS011;58633;49.470;11.004;2023-10-13T14:51:46;5.78;;;2.88;;
6823;SDS011;58633;49.470;11.004;2023-10-13T14:54:11;7.93;;;3.00;;
6823;SDS011;58633;49.470;11.004;2023-10-13T14:56:39;6.20;;;2.50;;
6823;SDS011;58633;49.470;11.004;2023-10-13T14:59:07;7.38;;;2.80;;
6823;SDS011;58633;49.470;11.004;2023-10-13T15:01:41;5.95;;;2.50;;
6823;SDS011;58633;49.470;11.004;2023-10-13T15:04:07;8.63;;;2.38;;
6823;SDS011;58633;49.470;11.004;2023-10-13T15:06:33;10.30;;;3.10;;
6823;SDS011;58633;49.470;11.004;2023-10-13T15:08:59;5.32;;;2.55;;
6823;SDS011;58633;49.470;11.004;2023-10-13T15:11:26;2.78;;;2.30;;
6823;SDS011;58633;49.470;11.004;2023-10-13T15:14:00;6.30;;;2.97;;
6823;SDS011;58633;49.470;11.004;2023-10-13T15:16:27;8.63;;;2.85;;
6823;SDS011;58633;49.470;11.004;2023-10-13T15:18:52;7.97;;;2.83;;
6823;SDS011;58633;49.470;11.004;2023-10-13T15:21:22;4.82;;;2.70;;
6823;SDS011;58633;49.470;11.004;2023-10-13T15:23:52;5.70;;;3.50;;
6823;SDS011;58633;49.470;11.004;2023-10-13T15:26:18;5.38;;;2.95;;
6823;SDS011;58633;49.470;11.004;2023-10-13T15:28:46;4.47;;;3.53;;
6823;SDS011;58633;49.470;11.004;2023-10-13T15:31:20;6.85;;;2.70;;
6823;SDS011;58633;49.470;11.004;2023-10-13T15:33:58;6.95;;;2.58;;
6823;SDS011;58633;49.470;11.004;2023-10-13T15:36:25;6.18;;;2.70;;
6823;SDS011;58633;49.470;11.004;2023-10-13T15:38:52;9.65;;;3.15;;
6823;SDS011;58633;49.470;11.004;2023-10-13T15:41:24;6.63;;;2.70;;